createdAt,value
2018-09-28T00:04:05.067Z,8.50
2018-09-28T00:08:13.196Z,9.10
2018-09-28T00:12:21.349Z,7.20
2018-09-28T00:16:29.516Z,9.23
2018-09-28T00:20:37.653Z,7.30
2018-09-28T00:24:45.800Z,40.63
2018-09-28T00:28:53.977Z,9.20
2018-09-28T00:33:02.133Z,7.62
2018-09-28T00:37:10.297Z,10.27
2018-09-28T00:41:18.451Z,7.30
2018-09-28T00:45:26.603Z,10.33
2018-09-28T00:49:35.197Z,11.70
2018-09-28T00:53:43.324Z,20.93
2018-09-28T00:57:51.559Z,10.60
2018-09-28T01:01:59.692Z,8.40
2018-09-28T01:06:07.850Z,13.37
2018-09-28T01:10:16.001Z,8.30
2018-09-28T01:14:24.140Z,7.50
2018-09-28T01:18:32.280Z,8.87
2018-09-28T01:22:40.476Z,10.43
2018-09-28T01:26:48.617Z,7.77
2018-09-28T01:30:56.809Z,7.27
2018-09-28T01:35:04.945Z,6.73
2018-09-28T01:39:13.126Z,8.57
2018-09-28T01:43:21.264Z,7.50
2018-09-28T01:47:29.413Z,6.53
2018-09-28T01:51:37.568Z,9.57
2018-09-28T01:55:45.722Z,6.90
2018-09-28T01:59:53.872Z,6.63
2018-09-28T02:04:02.016Z,7.80
2018-09-28T02:08:10.170Z,8.50
2018-09-28T02:12:18.333Z,7.23
2018-09-28T02:16:26.489Z,9.03
2018-09-28T02:20:34.653Z,9.57
2018-09-28T02:24:42.817Z,7.87
2018-09-28T02:28:50.951Z,8.77
2018-09-28T02:32:59.197Z,8.23
2018-09-28T02:37:07.482Z,8.70
2018-09-28T02:41:15.635Z,7.83
2018-09-28T02:45:23.781Z,6.73
2018-09-28T02:49:31.912Z,8.43
2018-09-28T02:53:40.081Z,6.10
2018-09-28T02:57:48.238Z,10.90
2018-09-28T03:01:56.159Z,8.10
2018-09-28T03:06:04.324Z,7.50
2018-09-28T03:10:12.504Z,7.03
2018-09-28T03:14:20.687Z,8.03
2018-09-28T03:18:28.816Z,6.77
2018-09-28T03:22:37.144Z,10.03
2018-09-28T03:26:45.313Z,8.20
2018-09-28T03:30:53.541Z,9.13
2018-09-28T03:35:01.676Z,6.53
2018-09-28T03:39:09.814Z,9.57
2018-09-28T03:43:17.957Z,6.90
2018-09-28T03:47:26.140Z,9.47
2018-09-28T03:51:34.280Z,8.00
2018-09-28T03:55:42.407Z,8.17
2018-09-28T03:59:50.565Z,7.67
2018-09-28T04:03:58.788Z,8.17
2018-09-28T04:08:07.036Z,7.73
2018-09-28T04:12:15.176Z,7.70
2018-09-28T04:16:23.356Z,7.90
2018-09-28T04:20:31.528Z,7.67
2018-09-28T04:24:39.677Z,8.57
2018-09-28T04:28:47.839Z,11.70
2018-09-28T04:32:55.996Z,10.63
2018-09-28T04:37:04.149Z,10.43
2018-09-28T04:41:12.406Z,12.13
2018-09-28T04:45:20.725Z,15.20
2018-09-28T04:49:28.813Z,12.17
2018-09-28T04:53:36.963Z,16.23
2018-09-28T04:57:45.122Z,10.90
2018-09-28T05:01:53.075Z,11.77
2018-09-28T05:06:01.213Z,9.97
2018-09-28T05:10:09.405Z,10.53
2018-09-28T05:14:17.553Z,15.50
2018-09-28T05:18:25.702Z,10.60
2018-09-28T05:22:33.856Z,10.87
2018-09-28T05:26:41.993Z,8.35
2018-09-28T05:30:53.970Z,11.93
2018-09-28T05:34:58.306Z,10.70
2018-09-28T05:39:07.783Z,13.27
2018-09-28T05:43:15.925Z,43.33
2018-09-28T05:47:24.086Z,28.07
2018-09-28T05:51:32.348Z,35.23
2018-09-28T05:55:40.736Z,22.27
2018-09-28T05:59:54.380Z,30.20
2018-09-28T06:04:07.925Z,25.03
2018-09-28T06:08:16.136Z,26.23
2018-09-28T06:12:24.279Z,20.77
2018-09-28T06:16:32.441Z,21.17
2018-09-28T06:20:40.600Z,38.17
2018-09-28T06:24:48.780Z,55.30
2018-09-28T06:28:56.937Z,44.33
2018-09-28T06:33:05.084Z,37.20
2018-09-28T06:37:13.276Z,27.70
2018-09-28T06:41:21.424Z,28.77
2018-09-28T06:45:29.612Z,26.27
2018-09-28T06:49:37.852Z,18.07
2018-09-28T06:53:46.083Z,19.83
2018-09-28T06:57:54.324Z,27.97
2018-09-28T07:02:02.612Z,22.20
2018-09-28T07:06:10.944Z,18.23
2018-09-28T07:10:19.069Z,14.83
2018-09-28T07:14:27.229Z,13.97
2018-09-28T07:18:35.503Z,14.87
2018-09-28T07:22:43.650Z,13.37
2018-09-28T07:26:51.804Z,11.43
2018-09-28T07:30:59.964Z,11.07
2018-09-28T07:35:08.210Z,14.70
2018-09-28T07:39:16.406Z,12.30
2018-09-28T07:43:24.551Z,12.23
2018-09-28T07:47:32.697Z,14.20
2018-09-28T07:51:40.643Z,16.83
2018-09-28T07:55:48.865Z,14.60
2018-09-28T07:59:57.016Z,19.20
2018-09-28T08:04:05.212Z,13.10
2018-09-28T08:08:13.317Z,12.43
2018-09-28T08:12:21.568Z,12.60
2018-09-28T08:16:29.712Z,10.83
2018-09-28T08:20:37.921Z,10.23
2018-09-28T08:24:46.145Z,13.10
2018-09-28T08:28:54.214Z,17.20
2018-09-28T08:33:02.396Z,17.53
2018-09-28T08:37:10.593Z,21.10
2018-09-28T08:41:18.774Z,20.80
2018-09-28T08:45:26.916Z,17.07
2018-09-28T08:49:35.110Z,21.00
2018-09-28T08:53:43.263Z,20.40
2018-09-28T08:57:51.441Z,20.80
2018-09-28T09:01:59.629Z,20.90
2018-09-28T09:06:07.780Z,28.10
2018-09-28T09:10:15.941Z,26.93
2018-09-28T09:14:24.125Z,51.50
2018-09-28T09:18:32.272Z,41.33
2018-09-28T09:22:40.409Z,42.33
2018-09-28T09:26:48.629Z,45.50
2018-09-28T09:30:56.785Z,49.30
2018-09-28T09:35:05.108Z,53.10
2018-09-28T09:39:13.286Z,57.43
2018-09-28T09:43:21.436Z,61.00
2018-09-28T09:47:29.588Z,73.30
2018-09-28T09:51:37.859Z,69.77
2018-09-28T09:55:46.017Z,71.17
2018-09-28T09:59:54.148Z,81.63
2018-09-28T10:04:09.331Z,81.27
2018-09-28T10:08:17.529Z,75.67
2018-09-28T10:12:25.756Z,80.93
2018-09-28T10:16:33.841Z,79.03
2018-09-28T10:20:41.995Z,79.50
2018-09-28T10:24:50.199Z,74.27
2018-09-28T10:28:58.467Z,75.27
2018-09-28T10:33:06.676Z,56.97
2018-09-28T10:37:15.159Z,49.93
2018-09-28T10:41:23.304Z,26.80
2018-09-28T10:45:31.488Z,27.03
2018-09-28T10:49:39.696Z,21.23
2018-09-28T10:53:47.841Z,19.60
2018-09-28T10:57:56.050Z,18.10
2018-09-28T11:02:04.200Z,19.40
2018-09-28T11:06:12.365Z,15.17
2018-09-28T11:10:20.556Z,12.33
2018-09-28T11:14:28.676Z,12.73
2018-09-28T11:18:36.847Z,10.83
2018-09-28T11:22:45.013Z,11.30
2018-09-28T11:26:53.197Z,12.53
2018-09-28T11:31:01.386Z,11.33
2018-09-28T11:35:09.549Z,15.33
2018-09-28T11:39:17.781Z,13.30
2018-09-28T11:43:25.910Z,17.33
2018-09-28T11:47:34.062Z,21.70
2018-09-28T11:51:42.241Z,14.70
2018-09-28T11:55:50.500Z,15.87
2018-09-28T11:59:58.703Z,14.20
2018-09-28T12:04:07.109Z,15.73
2018-09-28T12:08:15.252Z,15.43
2018-09-28T12:12:23.529Z,17.93
2018-09-28T12:16:31.604Z,16.40
2018-09-28T12:20:39.768Z,14.83
2018-09-28T12:24:47.956Z,10.93
2018-09-28T12:28:56.115Z,10.27
2018-09-28T12:33:04.345Z,9.40
2018-09-28T12:37:12.480Z,7.83
2018-09-28T12:41:20.411Z,8.40
2018-09-28T12:45:28.707Z,7.63
2018-09-28T12:49:36.697Z,6.00
2018-09-28T12:53:44.939Z,6.97
2018-09-28T12:57:53.192Z,6.13
2018-09-28T13:02:01.673Z,5.17
2018-09-28T13:06:09.864Z,4.70
2018-09-28T13:10:18.010Z,4.73
2018-09-28T13:14:26.227Z,5.40
2018-09-28T13:18:34.403Z,4.10
2018-09-28T13:22:42.507Z,4.27
2018-09-28T13:26:50.783Z,4.17
2018-09-28T13:30:58.825Z,4.47
2018-09-28T13:35:07.028Z,4.97
2018-09-28T13:39:15.182Z,7.60
2018-09-28T13:43:23.341Z,6.57
2018-09-28T13:47:31.587Z,7.33
2018-09-28T13:51:39.842Z,12.60
2018-09-28T13:55:48.003Z,9.10
2018-09-28T13:59:56.471Z,7.00
2018-09-28T14:04:04.638Z,8.00
2018-09-28T14:08:12.830Z,11.23
2018-09-28T14:12:20.975Z,5.90
2018-09-28T14:16:29.149Z,7.10
2018-09-28T14:20:37.324Z,8.80
2018-09-28T14:24:45.492Z,10.60
2018-09-28T14:28:53.745Z,9.97
2018-09-28T14:33:01.822Z,13.43
2018-09-28T14:37:09.972Z,11.07
2018-09-28T14:41:18.122Z,16.30
2018-09-28T14:45:26.283Z,10.07
2018-09-28T14:49:34.436Z,9.07
2018-09-28T14:53:42.587Z,47.23
2018-09-28T14:57:50.753Z,14.93
2018-09-28T15:01:58.961Z,10.97
2018-09-28T15:06:07.449Z,10.57
2018-09-28T15:10:15.638Z,13.23
2018-09-28T15:14:23.828Z,7.90
2018-09-28T15:18:32.014Z,13.87
2018-09-28T15:22:40.161Z,13.23
2018-09-28T15:26:48.363Z,14.13
2018-09-28T15:30:56.519Z,13.73
2018-09-28T15:35:04.725Z,12.60
2018-09-28T15:39:13.826Z,11.20
2018-09-28T15:43:21.951Z,13.93
2018-09-28T15:47:30.124Z,14.27
2018-09-28T15:51:38.267Z,11.17
2018-09-28T15:55:46.425Z,12.30
2018-09-28T15:59:54.391Z,10.17
2018-09-28T16:04:02.561Z,11.20
2018-09-28T16:08:10.705Z,13.53
2018-09-28T16:12:18.888Z,9.53
2018-09-28T16:16:27.060Z,9.70
2018-09-28T16:20:35.328Z,20.20
2018-09-28T16:24:43.490Z,12.27
2018-09-28T16:28:51.725Z,17.67
2018-09-28T16:32:59.908Z,9.20
2018-09-28T16:37:08.101Z,12.23
2018-09-28T16:41:16.312Z,9.63
2018-09-28T16:45:24.228Z,9.90
2018-09-28T16:49:32.384Z,6.60
2018-09-28T16:53:40.584Z,15.87
2018-09-28T16:57:48.757Z,66.43
2018-09-28T17:01:56.905Z,120.43
2018-09-28T17:06:05.081Z,14.43
2018-09-28T17:10:13.235Z,11.97
2018-09-28T17:14:21.364Z,8.80
2018-09-28T17:18:29.513Z,9.07
2018-09-28T17:22:37.658Z,12.80
2018-09-28T17:26:45.825Z,11.83
2018-09-28T17:30:53.979Z,11.80
2018-09-28T17:35:02.228Z,9.33
2018-09-28T17:39:11.637Z,10.60
2018-09-28T17:43:19.833Z,12.57
2018-09-28T17:47:27.986Z,10.20
2018-09-28T17:51:36.201Z,20.80
2018-09-28T17:55:44.409Z,13.97
2018-09-28T17:59:52.576Z,15.53
2018-09-28T18:04:00.737Z,10.47
2018-09-28T18:08:08.884Z,11.87
2018-09-28T18:12:17.032Z,9.93
2018-09-28T18:16:25.184Z,8.70
2018-09-28T18:20:33.380Z,12.43
2018-09-28T18:24:41.516Z,24.63
2018-09-28T18:28:49.743Z,31.80
2018-09-28T18:32:57.938Z,19.97
2018-09-28T18:37:06.103Z,12.23
2018-09-28T18:41:14.233Z,15.17
2018-09-28T18:45:22.393Z,19.13
2018-09-28T18:49:30.612Z,15.00
2018-09-28T18:53:38.769Z,15.30
2018-09-28T18:57:46.957Z,18.73
2018-09-28T19:01:55.109Z,21.93
2018-09-28T19:06:03.077Z,28.60
2018-09-28T19:10:11.209Z,33.30
2018-09-28T19:14:19.383Z,20.43
2018-09-28T19:18:27.566Z,21.67
2018-09-28T19:22:35.704Z,14.80
2018-09-28T19:26:43.857Z,16.10
2018-09-28T19:30:52.068Z,15.70
2018-09-28T19:35:00.181Z,12.23
2018-09-28T19:39:09.649Z,12.93
2018-09-28T19:43:17.799Z,15.17
2018-09-28T19:47:25.947Z,18.67
2018-09-28T19:51:34.216Z,19.17
2018-09-28T19:55:42.397Z,16.20
2018-09-28T19:59:50.510Z,15.80
2018-09-28T20:03:58.674Z,14.43
2018-09-28T20:08:06.861Z,17.40
2018-09-28T20:12:15.036Z,13.23
2018-09-28T20:16:23.201Z,15.30
2018-09-28T20:20:31.343Z,23.40
2018-09-28T20:24:39.495Z,18.80
2018-09-28T20:28:47.637Z,18.23
2018-09-28T20:32:55.856Z,19.73
2018-09-28T20:37:03.992Z,13.30
2018-09-28T20:41:12.153Z,14.37
2018-09-28T20:45:20.305Z,15.55
2018-09-28T20:49:28.461Z,18.63
2018-09-28T20:53:36.636Z,20.40
2018-09-28T20:57:44.786Z,15.00
2018-09-28T21:01:52.990Z,17.20
2018-09-28T21:06:01.133Z,23.50
2018-09-28T21:10:09.289Z,12.30
2018-09-28T21:14:17.494Z,24.17
2018-09-28T21:18:25.649Z,39.03
2018-09-28T21:22:33.800Z,26.33
2018-09-28T21:26:41.980Z,20.23
2018-09-28T21:30:50.132Z,26.73
2018-09-28T21:34:58.325Z,17.95
2018-09-28T21:39:07.945Z,28.60
2018-09-28T21:43:16.204Z,22.10
2018-09-28T21:47:24.353Z,18.63
2018-09-28T21:51:32.496Z,19.23
2018-09-28T21:55:40.648Z,17.93
2018-09-28T21:59:48.792Z,22.00
2018-09-28T22:03:57.208Z,22.00
2018-09-28T22:08:05.378Z,22.70
2018-09-28T22:12:13.550Z,22.87
2018-09-28T22:16:21.708Z,40.73
2018-09-28T22:20:29.860Z,75.77
2018-09-28T22:24:38.037Z,38.73
2018-09-28T22:28:46.187Z,26.10
2018-09-28T22:32:54.376Z,19.90
2018-09-28T22:37:02.540Z,23.00
2018-09-28T22:41:11.745Z,26.40
2018-09-28T22:45:19.917Z,27.10
2018-09-28T22:49:28.068Z,20.07
2018-09-28T22:53:36.224Z,29.20
2018-09-28T22:57:44.372Z,36.27
2018-09-28T23:01:52.512Z,26.60
2018-09-28T23:06:00.684Z,23.30
2018-09-28T23:10:08.832Z,21.17
2018-09-28T23:14:16.980Z,22.83
2018-09-28T23:18:25.181Z,20.53
2018-09-28T23:22:33.336Z,21.87
2018-09-28T23:26:41.529Z,18.10
2018-09-28T23:30:49.676Z,20.17
2018-09-28T23:34:57.872Z,16.10
2018-09-28T23:39:07.813Z,24.63
2018-09-28T23:43:16.005Z,18.17
2018-09-28T23:47:24.182Z,16.67
2018-09-28T23:51:32.466Z,14.20
2018-09-28T23:55:40.642Z,14.77
2018-09-28T23:59:48.792Z,17.20
